Time;durP1;ratioP1;P1;durP2;ratioP2;P2;SDS_P1;SDS_P2;PMS_P1;PMS_P2;Temp;Humidity;BMP_temperature;BMP_pressure;BME280_temperature;BME280_humidity;BME280_pressure;Samples;Min_cycle;Max_cycle;Signal;HPM_P1;HPM_P2
2023/11/19 00:00:26;;;;;;;48.88;38.70;;;;;;;;;;4997380;28;25081;-78
2023/11/19 00:02:52;;;;;;;58.55;37.40;;;;;;;;;;4997356;28;25068;-76
2023/11/19 00:05:18;;;;;;;51.20;38.30;;;;;;;;;;4997687;28;25084;-75
2023/11/19 00:07:44;;;;;;;45.33;38.15;;;;;;;;;;4996369;28;25061;-72
2023/11/19 00:10:14;;;;;;;56.92;37.83;;;;;;;;;;4995061;28;25070;-73
2023/11/19 00:12:42;;;;;;;50.75;37.22;;;;;;;;;;4991007;28;25079;-77
2023/11/19 00:15:11;;;;;;;47.95;36.92;;;;;;;;;;4994823;28;25150;-74
2023/11/19 00:17:40;;;;;;;58.60;38.92;;;;;;;;;;4995646;28;25070;-73
2023/11/19 00:20:07;;;;;;;53.50;37.78;;;;;;;;;;4996695;28;25122;-74
2023/11/19 00:22:33;;;;;;;55.50;37.33;;;;;;;;;;4994214;28;25053;-73
2023/11/19 00:25:00;;;;;;;59.95;36.55;;;;;;;;;;4992578;28;25062;-72
2023/11/19 00:27:26;;;;;;;52.95;36.42;;;;;;;;;;4995143;28;25055;-74
2023/11/19 00:29:52;;;;;;;59.85;36.50;;;;;;;;;;4994226;28;25071;-72
2023/11/19 00:32:18;;;;;;;47.28;36.83;;;;;;;;;;4993630;28;25064;-74
2023/11/19 00:34:47;;;;;;;57.58;37.60;;;;;;;;;;4995992;28;25017;-73
2023/11/19 00:37:15;;;;;;;53.42;37.08;;;;;;;;;;4997193;28;25075;-75
2023/11/19 00:39:41;;;;;;;51.95;35.40;;;;;;;;;;4996756;28;25052;-72
2023/11/19 00:42:07;;;;;;;53.97;35.90;;;;;;;;;;4996771;28;25084;-73
2023/11/19 00:44:33;;;;;;;52.13;36.42;;;;;;;;;;5001749;28;25061;-72
2023/11/19 00:47:00;;;;;;;61.72;37.00;;;;;;;;;;5003710;28;25072;-75
2023/11/19 00:49:26;;;;;;;49.60;37.17;;;;;;;;;;4998296;28;25072;-73
2023/11/19 00:51:52;;;;;;;53.03;34.67;;;;;;;;;;4996908;28;25085;-76
2023/11/19 00:54:18;;;;;;;60.53;36.38;;;;;;;;;;5001774;28;25079;-74
2023/11/19 00:56:44;;;;;;;65.93;38.50;;;;;;;;;;4997331;28;25061;-74
2023/11/19 00:59:10;;;;;;;65.15;37.15;;;;;;;;;;4999747;28;25066;-75
2023/11/19 01:01:36;;;;;;;52.63;36.28;;;;;;;;;;4998089;28;25074;-76
2023/11/19 01:04:02;;;;;;;57.33;36.55;;;;;;;;;;4996101;28;25085;-74
2023/11/19 01:06:29;;;;;;;71.80;37.33;;;;;;;;;;4995878;28;25075;-76
2023/11/19 01:08:56;;;;;;;55.38;37.13;;;;;;;;;;5000617;28;25065;-74
2023/11/19 01:11:23;;;;;;;66.63;37.30;;;;;;;;;;4993403;28;25082;-72
2023/11/19 01:13:49;;;;;;;62.88;39.40;;;;;;;;;;4998840;28;25112;-74
2023/11/19 01:16:15;;;;;;;63.38;37.17;;;;;;;;;;4993440;28;25073;-75
2023/11/19 01:18:42;;;;;;;65.95;36.75;;;;;;;;;;4994310;28;25065;-76
2023/11/19 01:21:08;;;;;;;61.53;37.90;;;;;;;;;;4997764;28;25134;-72
2023/11/19 01:23:34;;;;;;;73.60;38.22;;;;;;;;;;5002115;28;25051;-76
2023/11/19 01:26:00;;;;;;;84.40;40.75;;;;;;;;;;4993591;28;25062;-74
2023/11/19 01:28:28;;;;;;;70.38;39.90;;;;;;;;;;4988298;28;25097;-72
2023/11/19 01:30:54;;;;;;;79.50;39.95;;;;;;;;;;5000546;28;25057;-73
2023/11/19 01:33:21;;;;;;;77.65;39.05;;;;;;;;;;4997121;28;25075;-73
2023/11/19 01:35:47;;;;;;;67.45;38.90;;;;;;;;;;4996148;28;25075;-73
2023/11/19 01:38:13;;;;;;;79.50;41.95;;;;;;;;;;4994505;28;25064;-72
2023/11/19 01:40:39;;;;;;;78.40;40.03;;;;;;;;;;4990506;28;25103;-71
2023/11/19 01:43:05;;;;;;;85.35;40.97;;;;;;;;;;4994959;28;25084;-75
2023/11/19 01:45:32;;;;;;;83.47;40.53;;;;;;;;;;4997435;28;25062;-75
2023/11/19 01:47:59;;;;;;;91.13;41.67;;;;;;;;;;4986873;28;25099;-73
2023/11/19 01:50:26;;;;;;;81.20;43.22;;;;;;;;;;4986033;28;25074;-74
2023/11/19 01:52:57;;;;;;;87.15;42.03;;;;;;;;;;4999489;28;25148;-73
2023/11/19 01:55:24;;;;;;;84.17;40.03;;;;;;;;;;4992333;28;25141;-73
2023/11/19 01:57:51;;;;;;;69.45;38.95;;;;;;;;;;4991320;28;25081;-73
2023/11/19 02:00:17;;;;;;;86.85;43.40;;;;;;;;;;4990566;28;25076;-76
2023/11/19 02:02:44;;;;;;;84.68;41.92;;;;;;;;;;4992853;28;25064;-74
2023/11/19 02:05:11;;;;;;;94.70;45.72;;;;;;;;;;4992643;28;25066;-73
2023/11/19 02:07:37;;;;;;;83.57;42.10;;;;;;;;;;4994714;28;25050;-73
2023/11/19 02:10:05;;;;;;;85.07;45.17;;;;;;;;;;4992690;28;25086;-76
2023/11/19 02:12:33;;;;;;;82.70;41.70;;;;;;;;;;4993974;28;25060;-73
2023/11/19 02:15:00;;;;;;;83.53;43.08;;;;;;;;;;4992642;28;25127;-73
2023/11/19 02:17:27;;;;;;;88.72;45.03;;;;;;;;;;4992941;28;25057;-71
2023/11/19 02:19:53;;;;;;;92.00;42.08;;;;;;;;;;4991909;28;25054;-77
2023/11/19 02:22:19;;;;;;;94.07;45.53;;;;;;;;;;4993797;28;25101;-72
2023/11/19 02:24:47;;;;;;;96.43;44.83;;;;;;;;;;4993519;28;25069;-74
2023/11/19 02:27:18;;;;;;;95.78;45.30;;;;;;;;;;4991793;28;25055;-72
2023/11/19 02:29:43;;;;;;;88.28;43.05;;;;;;;;;;4992107;28;25065;-76
2023/11/19 02:32:09;;;;;;;94.05;44.28;;;;;;;;;;4991472;28;25064;-72
2023/11/19 02:34:35;;;;;;;88.55;44.42;;;;;;;;;;4990511;28;25069;-74
2023/11/19 02:37:01;;;;;;;92.28;45.60;;;;;;;;;;4994557;28;25152;-74
2023/11/19 02:39:28;;;;;;;94.32;44.05;;;;;;;;;;4994304;28;25067;-76
2023/11/19 02:41:54;;;;;;;98.38;44.90;;;;;;;;;;4990096;28;25043;-76
2023/11/19 02:44:20;;;;;;;83.20;43.78;;;;;;;;;;4991886;28;25078;-74
2023/11/19 02:46:48;;;;;;;90.75;45.22;;;;;;;;;;4994162;28;25083;-74
2023/11/19 02:49:14;;;;;;;104.20;44.20;;;;;;;;;;4994152;28;25114;-72
2023/11/19 02:51:40;;;;;;;85.32;41.78;;;;;;;;;;4991501;28;25080;-73
2023/11/19 02:54:06;;;;;;;94.88;43.75;;;;;;;;;;4992769;28;25157;-75
2023/11/19 02:56:35;;;;;;;89.53;45.17;;;;;;;;;;4994011;28;25171;-74
2023/11/19 02:59:08;;;;;;;98.57;43.67;;;;;;;;;;4988948;28;25074;-70
2023/11/19 03:01:35;;;;;;;87.45;42.92;;;;;;;;;;4986368;28;25112;-77
2023/11/19 03:04:04;;;;;;;106.93;42.80;;;;;;;;;;4989896;28;25052;-73
2023/11/19 03:06:30;;;;;;;91.70;43.00;;;;;;;;;;4987920;28;25077;-72
2023/11/19 03:08:57;;;;;;;98.80;44.92;;;;;;;;;;4990504;28;25072;-73
2023/11/19 03:11:23;;;;;;;92.20;43.08;;;;;;;;;;4989005;28;25074;-76
2023/11/19 03:13:49;;;;;;;83.35;41.50;;;;;;;;;;5009126;28;25080;-73
2023/11/19 03:16:15;;;;;;;84.97;42.80;;;;;;;;;;5000924;28;25080;-73
2023/11/19 03:18:42;;;;;;;88.20;41.35;;;;;;;;;;4999554;28;25071;-73
2023/11/19 03:21:08;;;;;;;79.05;43.05;;;;;;;;;;4989310;28;25066;-72
2023/11/19 03:23:35;;;;;;;85.90;44.15;;;;;;;;;;4996676;28;25068;-74
2023/11/19 03:26:05;;;;;;;88.72;42.20;;;;;;;;;;4998228;28;25106;-74
2023/11/19 03:28:31;;;;;;;98.80;41.70;;;;;;;;;;4989698;28;25056;-75
2023/11/19 03:30:57;;;;;;;86.95;41.72;;;;;;;;;;4992661;28;25051;-75
2023/11/19 03:33:23;;;;;;;99.03;42.72;;;;;;;;;;4992945;28;25069;-73
2023/11/19 03:35:51;;;;;;;83.97;40.85;;;;;;;;;;4995244;28;25076;-74
2023/11/19 03:38:17;;;;;;;84.00;40.35;;;;;;;;;;4998970;28;25110;-72
2023/11/19 03:40:43;;;;;;;74.47;39.65;;;;;;;;;;4997450;28;25074;-73
2023/11/19 03:43:09;;;;;;;85.30;40.22;;;;;;;;;;4992822;28;25081;-72
2023/11/19 03:45:36;;;;;;;84.45;41.53;;;;;;;;;;4996897;28;25065;-72
2023/11/19 03:48:02;;;;;;;77.57;40.90;;;;;;;;;;4993134;28;25097;-73
2023/11/19 03:50:28;;;;;;;81.88;40.67;;;;;;;;;;4990853;28;25088;-73
2023/11/19 03:52:54;;;;;;;95.05;40.50;;;;;;;;;;4987905;28;25057;-76
2023/11/19 03:55:20;;;;;;;84.00;39.17;;;;;;;;;;4996176;28;25061;-71
2023/11/19 03:57:48;;;;;;;84.75;40.28;;;;;;;;;;4992879;28;25055;-71
2023/11/19 04:00:14;;;;;;;77.57;40.35;;;;;;;;;;4992815;28;25055;-72
2023/11/19 04:02:42;;;;;;;83.90;44.65;;;;;;;;;;4994368;28;25075;-72
2023/11/19 04:05:09;;;;;;;105.65;43.30;;;;;;;;;;4985969;28;25072;-72
2023/11/19 04:07:36;;;;;;;90.72;41.13;;;;;;;;;;4995931;28;25063;-74
2023/11/19 04:10:02;;;;;;;94.07;41.67;;;;;;;;;;4994075;28;25067;-72
2023/11/19 04:12:28;;;;;;;88.32;40.72;;;;;;;;;;4989871;28;25074;-75
2023/11/19 04:14:54;;;;;;;98.97;42.90;;;;;;;;;;4996421;28;25069;-70
2023/11/19 04:17:20;;;;;;;96.18;44.28;;;;;;;;;;4995174;28;25140;-73
2023/11/19 04:19:45;;;;;;;98.50;43.63;;;;;;;;;;4996268;28;25064;-73
2023/11/19 04:22:11;;;;;;;82.50;45.75;;;;;;;;;;4996198;28;25087;-73
2023/11/19 04:24:38;;;;;;;87.00;45.45;;;;;;;;;;5000354;28;25066;-74
2023/11/19 04:27:06;;;;;;;101.30;45.10;;;;;;;;;;5000356;28;25061;-72
2023/11/19 04:29:32;;;;;;;94.03;44.05;;;;;;;;;;5008193;28;25044;-71
2023/11/19 04:31:59;;;;;;;82.78;41.03;;;;;;;;;;5009077;28;25068;-73
2023/11/19 04:34:25;;;;;;;81.93;40.70;;;;;;;;;;4994994;28;25060;-70
2023/11/19 04:36:51;;;;;;;91.47;42.30;;;;;;;;;;5001681;28;25052;-73
2023/11/19 04:39:18;;;;;;;91.57;44.75;;;;;;;;;;4998889;28;25173;-72
2023/11/19 04:41:57;;;;;;;90.60;46.63;;;;;;;;;;4998650;28;25056;-74
2023/11/19 04:44:23;;;;;;;97.45;46.03;;;;;;;;;;4995622;28;25086;-71
2023/11/19 04:46:49;;;;;;;85.25;45.03;;;;;;;;;;5009820;28;25062;-72
2023/11/19 04:49:16;;;;;;;83.38;44.53;;;;;;;;;;4994227;28;25057;-73
2023/11/19 04:51:42;;;;;;;81.07;43.63;;;;;;;;;;4992717;28;25079;-73
2023/11/19 04:54:11;;;;;;;74.35;46.35;;;;;;;;;;4993683;28;25079;-72
2023/11/19 04:56:37;;;;;;;94.68;46.80;;;;;;;;;;4986132;28;25067;-74
2023/11/19 04:59:05;;;;;;;85.68;43.80;;;;;;;;;;4993664;28;25096;-75
2023/11/19 05:01:31;;;;;;;78.20;41.78;;;;;;;;;;4989611;28;25077;-77
2023/11/19 05:04:00;;;;;;;85.18;45.20;;;;;;;;;;4996340;28;25120;-73
2023/11/19 05:06:28;;;;;;;85.32;42.83;;;;;;;;;;4994019;28;25139;-72
2023/11/19 05:08:54;;;;;;;93.72;46.75;;;;;;;;;;4992104;28;25068;-72
2023/11/19 05:11:20;;;;;;;85.07;45.85;;;;;;;;;;4994395;28;25076;-72
2023/11/19 05:13:46;;;;;;;100.50;46.58;;;;;;;;;;4994631;28;25073;-74
2023/11/19 05:16:15;;;;;;;92.90;45.70;;;;;;;;;;4987537;28;25057;-74
2023/11/19 05:18:42;;;;;;;86.18;46.15;;;;;;;;;;5010162;28;25069;-73
2023/11/19 05:21:08;;;;;;;100.07;47.92;;;;;;;;;;4992999;28;25054;-73
2023/11/19 05:23:34;;;;;;;84.47;46.70;;;;;;;;;;4989998;28;25067;-74
2023/11/19 05:26:02;;;;;;;92.22;48.90;;;;;;;;;;4991031;28;25159;-77
2023/11/19 05:28:28;;;;;;;99.70;48.55;;;;;;;;;;4993423;28;25045;-71
2023/11/19 05:30:54;;;;;;;110.28;49.03;;;;;;;;;;5001210;28;25082;-73
2023/11/19 05:33:20;;;;;;;101.45;47.30;;;;;;;;;;4992628;28;25066;-75
2023/11/19 05:35:46;;;;;;;97.45;48.13;;;;;;;;;;4992416;28;25052;-73
2023/11/19 05:38:13;;;;;;;94.85;43.85;;;;;;;;;;4993262;28;25085;-72
2023/11/19 05:40:39;;;;;;;97.05;46.80;;;;;;;;;;4990377;28;25153;-75
2023/11/19 05:43:05;;;;;;;100.35;45.38;;;;;;;;;;4991115;28;25066;-73
2023/11/19 05:45:32;;;;;;;103.20;47.67;;;;;;;;;;4992732;28;25092;-75
2023/11/19 05:47:58;;;;;;;85.47;43.50;;;;;;;;;;4993990;28;25064;-73
2023/11/19 05:50:25;;;;;;;102.13;46.15;;;;;;;;;;4992882;28;25108;-72
2023/11/19 05:52:52;;;;;;;97.18;46.00;;;;;;;;;;4987889;28;25069;-75
2023/11/19 05:55:19;;;;;;;98.07;47.22;;;;;;;;;;4992626;28;25183;-71
2023/11/19 05:57:45;;;;;;;89.70;45.47;;;;;;;;;;4995284;28;25063;-74
2023/11/19 06:00:12;;;;;;;94.60;45.58;;;;;;;;;;4991642;28;25070;-77
2023/11/19 06:02:39;;;;;;;103.60;48.08;;;;;;;;;;4990908;28;25105;-74
2023/11/19 06:05:06;;;;;;;89.00;45.05;;;;;;;;;;4988732;28;25094;-73
2023/11/19 06:07:33;;;;;;;94.78;43.20;;;;;;;;;;4990285;28;25084;-75
2023/11/19 06:09:59;;;;;;;100.60;43.92;;;;;;;;;;4992298;28;25081;-73
2023/11/19 06:12:27;;;;;;;80.93;41.63;;;;;;;;;;4991692;28;25072;-72
2023/11/19 06:14:53;;;;;;;86.07;41.03;;;;;;;;;;4989752;28;25053;-74
2023/11/19 06:17:19;;;;;;;90.57;40.97;;;;;;;;;;4991997;28;25105;-71
2023/11/19 06:19:45;;;;;;;96.45;40.97;;;;;;;;;;4992892;28;25127;-75
2023/11/19 06:22:11;;;;;;;92.93;40.03;;;;;;;;;;4989427;28;25136;-73
2023/11/19 06:24:37;;;;;;;82.95;40.08;;;;;;;;;;4991858;28;25073;-72
2023/11/19 06:27:04;;;;;;;89.53;39.80;;;;;;;;;;4995018;28;25055;-73
2023/11/19 06:29:30;;;;;;;94.07;42.58;;;;;;;;;;4987510;28;25074;-73
2023/11/19 06:31:57;;;;;;;89.25;43.60;;;;;;;;;;4989602;28;25080;-73
2023/11/19 06:34:23;;;;;;;75.30;40.67;;;;;;;;;;4989822;28;25073;-70
2023/11/19 06:36:48;;;;;;;89.78;40.05;;;;;;;;;;4988714;28;25061;-73
2023/11/19 06:39:15;;;;;;;101.72;41.58;;;;;;;;;;4989465;28;25134;-76
2023/11/19 06:41:45;;;;;;;96.03;43.03;;;;;;;;;;4987108;28;25061;-73
2023/11/19 06:44:11;;;;;;;86.10;41.22;;;;;;;;;;4989414;28;25079;-71
2023/11/19 06:46:36;;;;;;;91.68;41.05;;;;;;;;;;4994096;28;25095;-72
2023/11/19 06:49:02;;;;;;;77.03;38.72;;;;;;;;;;4993861;28;25071;-76
2023/11/19 06:51:29;;;;;;;97.38;42.53;;;;;;;;;;4991633;28;25083;-73
2023/11/19 06:53:55;;;;;;;99.35;42.78;;;;;;;;;;4990245;28;25080;-74
2023/11/19 06:56:22;;;;;;;83.55;39.92;;;;;;;;;;4996574;28;25062;-69
2023/11/19 06:58:48;;;;;;;80.00;39.60;;;;;;;;;;4996584;28;25059;-73
2023/11/19 07:01:15;;;;;;;77.80;41.22;;;;;;;;;;4995539;28;25053;-73
2023/11/19 07:03:41;;;;;;;95.72;40.58;;;;;;;;;;4985415;28;25058;-77
2023/11/19 07:06:08;;;;;;;81.90;42.53;;;;;;;;;;5007475;28;25101;-73
2023/11/19 07:08:34;;;;;;;86.63;39.33;;;;;;;;;;4993500;28;25050;-72
2023/11/19 07:11:00;;;;;;;82.43;43.70;;;;;;;;;;4995037;28;25075;-73
2023/11/19 07:13:27;;;;;;;83.85;42.75;;;;;;;;;;4994356;28;25159;-75
2023/11/19 07:15:53;;;;;;;78.18;43.22;;;;;;;;;;4986870;28;25053;-72
2023/11/19 07:18:21;;;;;;;73.35;37.38;;;;;;;;;;4993060;28;25100;-72
2023/11/19 07:20:47;;;;;;;83.00;40.10;;;;;;;;;;4998319;28;25053;-80
2023/11/19 07:23:16;;;;;;;76.22;38.15;;;;;;;;;;4992917;28;25064;-73
2023/11/19 07:25:43;;;;;;;77.28;39.10;;;;;;;;;;4995482;28;25085;-73
2023/11/19 07:28:09;;;;;;;78.30;37.63;;;;;;;;;;4992870;28;25070;-71
2023/11/19 07:30:36;;;;;;;77.88;36.38;;;;;;;;;;4988545;28;25061;-73
2023/11/19 07:33:03;;;;;;;87.70;40.20;;;;;;;;;;4989836;28;25142;-72
2023/11/19 07:35:30;;;;;;;68.05;34.95;;;;;;;;;;4986775;28;25169;-72
2023/11/19 07:37:57;;;;;;;79.70;37.80;;;;;;;;;;5003792;28;25061;-73
2023/11/19 07:40:23;;;;;;;82.18;38.63;;;;;;;;;;4991905;28;25059;-73
2023/11/19 07:42:49;;;;;;;80.10;38.17;;;;;;;;;;4994000;28;25126;-71
2023/11/19 07:45:15;;;;;;;81.55;36.05;;;;;;;;;;4991149;28;25153;-72
2023/11/19 07:47:42;;;;;;;78.50;38.10;;;;;;;;;;4991069;28;25059;-75
2023/11/19 07:50:09;;;;;;;71.88;34.13;;;;;;;;;;4989434;28;25061;-78
2023/11/19 07:52:35;;;;;;;77.32;33.28;;;;;;;;;;4992526;28;25059;-76
2023/11/19 07:55:02;;;;;;;70.55;33.08;;;;;;;;;;4993177;28;25088;-72
2023/11/19 07:57:30;;;;;;;71.32;31.70;;;;;;;;;;4992123;28;25062;-78
2023/11/19 07:59:56;;;;;;;81.00;34.10;;;;;;;;;;4987890;28;25063;-74
2023/11/19 08:02:23;;;;;;;71.38;32.67;;;;;;;;;;4992101;28;25060;-74
2023/11/19 08:04:51;;;;;;;69.07;30.27;;;;;;;;;;4990576;28;25061;-71
2023/11/19 08:07:17;;;;;;;71.90;32.60;;;;;;;;;;5006942;28;25071;-75
2023/11/19 08:09:43;;;;;;;69.78;33.15;;;;;;;;;;5002249;28;25055;-72
2023/11/19 08:12:09;;;;;;;87.25;34.65;;;;;;;;;;5008113;28;25077;-76
2023/11/19 08:14:36;;;;;;;66.38;34.75;;;;;;;;;;5001439;28;25108;-73
2023/11/19 08:17:02;;;;;;;76.07;36.22;;;;;;;;;;5009220;28;25060;-74
2023/11/19 08:19:28;;;;;;;73.85;35.63;;;;;;;;;;5004917;28;25081;-69
2023/11/19 08:21:54;;;;;;;66.53;33.30;;;;;;;;;;4998260;28;25051;-70
2023/11/19 08:24:20;;;;;;;70.75;34.70;;;;;;;;;;4993950;28;25066;-74
2023/11/19 08:26:46;;;;;;;62.67;32.05;;;;;;;;;;4984869;28;25160;-75
2023/11/19 08:29:13;;;;;;;75.68;34.08;;;;;;;;;;4991376;28;25066;-76
2023/11/19 08:31:39;;;;;;;65.55;30.23;;;;;;;;;;4996152;28;25066;-74
2023/11/19 08:34:08;;;;;;;70.28;32.55;;;;;;;;;;4990255;28;25059;-74
2023/11/19 08:36:34;;;;;;;69.75;31.67;;;;;;;;;;4992120;28;25050;-73
2023/11/19 08:39:00;;;;;;;69.10;32.65;;;;;;;;;;4991539;28;25056;-73
2023/11/19 08:41:27;;;;;;;66.03;29.83;;;;;;;;;;4986929;28;25056;-71
2023/11/19 08:43:52;;;;;;;68.57;29.08;;;;;;;;;;4989156;28;25077;-74
2023/11/19 08:46:19;;;;;;;72.07;28.95;;;;;;;;;;4986213;28;25053;-72
2023/11/19 08:48:45;;;;;;;69.50;28.17;;;;;;;;;;4987986;28;25155;-72
2023/11/19 08:51:11;;;;;;;66.22;29.40;;;;;;;;;;4990523;28;25123;-73
2023/11/19 08:53:37;;;;;;;87.35;35.22;;;;;;;;;;4988425;28;25138;-72
2023/11/19 08:56:04;;;;;;;74.78;31.20;;;;;;;;;;4989241;28;25083;-74
2023/11/19 08:58:30;;;;;;;60.60;28.23;;;;;;;;;;4990418;28;25062;-72
2023/11/19 09:00:57;;;;;;;62.90;27.13;;;;;;;;;;4986313;28;25049;-75
2023/11/19 09:03:23;;;;;;;74.30;27.70;;;;;;;;;;4986322;28;25060;-73
2023/11/19 09:05:49;;;;;;;67.80;29.90;;;;;;;;;;4990638;28;25158;-74
2023/11/19 09:08:15;;;;;;;60.10;23.65;;;;;;;;;;4990438;28;25152;-71
2023/11/19 09:10:41;;;;;;;61.88;22.67;;;;;;;;;;4992933;28;25052;-74
2023/11/19 09:13:07;;;;;;;67.75;23.33;;;;;;;;;;4990623;28;25148;-75
2023/11/19 09:15:33;;;;;;;58.20;21.92;;;;;;;;;;4984790;28;25081;-72
2023/11/19 09:17:59;;;;;;;63.75;22.67;;;;;;;;;;4989847;28;25054;-72
2023/11/19 09:20:25;;;;;;;74.13;25.52;;;;;;;;;;4988792;28;25085;-71
2023/11/19 09:22:51;;;;;;;64.47;20.85;;;;;;;;;;4989737;28;25112;-71
2023/11/19 09:25:17;;;;;;;60.28;22.52;;;;;;;;;;4990424;28;25149;-70
2023/11/19 09:27:44;;;;;;;59.83;24.85;;;;;;;;;;4990366;28;25051;-74
2023/11/19 09:30:10;;;;;;;65.10;23.58;;;;;;;;;;4987958;28;25062;-74
2023/11/19 09:32:37;;;;;;;58.05;21.60;;;;;;;;;;4991191;28;25054;-73
2023/11/19 09:35:03;;;;;;;60.72;23.27;;;;;;;;;;4989505;28;25053;-72
2023/11/19 09:37:29;;;;;;;62.03;27.92;;;;;;;;;;4988765;28;25053;-75
2023/11/19 09:39:56;;;;;;;67.40;29.55;;;;;;;;;;4986881;28;25067;-76
2023/11/19 09:42:22;;;;;;;73.72;29.15;;;;;;;;;;4986006;28;25132;-72
2023/11/19 09:44:48;;;;;;;61.28;22.77;;;;;;;;;;4987855;28;25076;-71
2023/11/19 09:47:15;;;;;;;65.85;23.40;;;;;;;;;;4989818;28;25071;-73
2023/11/19 09:49:41;;;;;;;63.00;24.10;;;;;;;;;;4987773;28;25071;-70
2023/11/19 09:52:07;;;;;;;67.57;22.35;;;;;;;;;;4969819;28;25052;-73
2023/11/19 09:54:33;;;;;;;64.72;22.20;;;;;;;;;;4987329;28;25119;-71
2023/11/19 09:57:03;;;;;;;65.03;20.63;;;;;;;;;;4987029;28;25062;-72
2023/11/19 09:59:30;;;;;;;61.28;21.63;;;;;;;;;;4989290;28;25078;-72
2023/11/19 10:01:57;;;;;;;62.38;23.20;;;;;;;;;;4988190;28;25063;-75
2023/11/19 10:04:23;;;;;;;65.03;25.30;;;;;;;;;;4987328;28;25065;-73
2023/11/19 10:06:50;;;;;;;64.28;25.55;;;;;;;;;;4985894;28;25073;-72
2023/11/19 10:09:16;;;;;;;59.97;26.80;;;;;;;;;;4983691;28;25070;-71
2023/11/19 10:11:42;;;;;;;48.88;22.20;;;;;;;;;;4980298;28;25078;-73
2023/11/19 10:14:08;;;;;;;58.78;21.60;;;;;;;;;;4985222;28;25073;-73
2023/11/19 10:16:35;;;;;;;67.07;23.58;;;;;;;;;;4988961;28;25137;-72
2023/11/19 10:19:01;;;;;;;63.92;18.02;;;;;;;;;;4991485;28;25059;-72
2023/11/19 10:21:27;;;;;;;56.90;14.38;;;;;;;;;;4986898;28;25097;-73
2023/11/19 10:23:59;;;;;;;57.35;15.68;;;;;;;;;;4992770;28;25072;-72
2023/11/19 10:26:26;;;;;;;51.63;14.93;;;;;;;;;;4984075;28;25131;-73
2023/11/19 10:28:52;;;;;;;55.92;16.13;;;;;;;;;;4992418;28;25076;-71
2023/11/19 10:31:18;;;;;;;63.55;14.48;;;;;;;;;;4999414;28;25061;-73
2023/11/19 10:33:45;;;;;;;63.67;14.00;;;;;;;;;;4991558;28;25061;-75
2023/11/19 10:36:12;;;;;;;53.35;13.43;;;;;;;;;;4993024;28;25061;-71
2023/11/19 10:38:38;;;;;;;58.72;14.80;;;;;;;;;;4991341;28;25139;-76
2023/11/19 10:41:05;;;;;;;54.30;12.48;;;;;;;;;;4991691;28;25100;-72
2023/11/19 10:43:31;;;;;;;45.60;13.63;;;;;;;;;;4972497;28;25061;-73
2023/11/19 10:46:10;;;;;;;53.15;13.75;;;;;;;;;;4995160;28;25075;-74
2023/11/19 10:48:36;;;;;;;55.67;15.18;;;;;;;;;;4999011;28;25140;-74
2023/11/19 10:51:07;;;;;;;54.08;15.68;;;;;;;;;;4997072;28;25085;-76
2023/11/19 10:53:34;;;;;;;46.92;12.15;;;;;;;;;;4989461;28;25093;-73
2023/11/19 10:56:01;;;;;;;59.80;14.30;;;;;;;;;;4990711;28;25166;-74
2023/11/19 10:58:29;;;;;;;47.15;12.93;;;;;;;;;;4993102;28;25084;-72
2023/11/19 11:00:58;;;;;;;46.15;14.38;;;;;;;;;;4991293;28;25082;-73
2023/11/19 11:03:30;;;;;;;63.13;15.02;;;;;;;;;;4989507;28;25074;-72
2023/11/19 11:05:57;;;;;;;64.15;15.55;;;;;;;;;;4991479;28;25105;-75
2023/11/19 11:08:23;;;;;;;55.35;16.40;;;;;;;;;;4992057;28;25064;-74
2023/11/19 11:10:53;;;;;;;52.03;13.98;;;;;;;;;;4993745;28;25060;-75
2023/11/19 11:13:19;;;;;;;39.17;13.85;;;;;;;;;;4989290;28;25093;-74
2023/11/19 11:15:50;;;;;;;49.17;12.60;;;;;;;;;;4992524;28;24999;-75
2023/11/19 11:18:17;;;;;;;40.08;11.63;;;;;;;;;;4990507;28;25115;-76
2023/11/19 11:20:44;;;;;;;30.13;9.52;;;;;;;;;;4989073;28;25141;-73
2023/11/19 11:23:20;;;;;;;36.35;11.95;;;;;;;;;;4988903;28;25123;-74
2023/11/19 11:25:58;;;;;;;41.55;11.98;;;;;;;;;;4990536;28;25062;-73
2023/11/19 11:28:30;;;;;;;39.17;11.98;;;;;;;;;;4987633;28;25128;-74
2023/11/19 11:31:07;;;;;;;46.97;13.50;;;;;;;;;;4989271;28;25088;-78
2023/11/19 11:33:51;;;;;;;46.22;12.48;;;;;;;;;;4998369;28;25051;-73
2023/11/19 11:36:17;;;;;;;55.03;13.73;;;;;;;;;;4990390;28;25063;-76
2023/11/19 11:38:43;;;;;;;37.25;10.85;;;;;;;;;;4987944;28;25130;-73
2023/11/19 11:41:18;;;;;;;41.67;11.65;;;;;;;;;;4992314;28;25091;-72
2023/11/19 11:43:49;;;;;;;51.92;10.73;;;;;;;;;;4982752;28;25101;-75
2023/11/19 11:46:33;;;;;;;47.47;9.95;;;;;;;;;;4994927;28;25062;-76
2023/11/19 11:49:01;;;;;;;57.72;11.50;;;;;;;;;;4993760;28;25058;-75
2023/11/19 11:51:45;;;;;;;55.83;13.27;;;;;;;;;;4989938;28;25174;-72
2023/11/19 11:54:12;;;;;;;53.50;11.77;;;;;;;;;;4993207;28;25077;-74
2023/11/19 11:56:38;;;;;;;45.53;12.30;;;;;;;;;;4995857;28;25060;-74
2023/11/19 11:59:19;;;;;;;44.05;10.60;;;;;;;;;;4994558;28;25082;-72
2023/11/19 12:02:00;;;;;;;44.85;11.40;;;;;;;;;;4994368;28;25117;-76
2023/11/19 12:04:27;;;;;;;42.83;12.18;;;;;;;;;;4992855;28;25089;-75
2023/11/19 12:07:03;;;;;;;51.47;12.15;;;;;;;;;;4993521;28;25135;-75
2023/11/19 12:09:30;;;;;;;46.78;10.15;;;;;;;;;;4999553;28;25070;-75
2023/11/19 12:12:15;;;;;;;47.88;10.32;;;;;;;;;;4994042;28;25074;-73
2023/11/19 12:14:59;;;;;;;44.08;9.40;;;;;;;;;;4997409;28;25136;-72
2023/11/19 12:17:34;;;;;;;47.92;10.02;;;;;;;;;;5005830;28;25086;-75
2023/11/19 12:20:00;;;;;;;46.03;9.80;;;;;;;;;;5005602;28;25071;-76
2023/11/19 12:22:26;;;;;;;44.55;9.23;;;;;;;;;;4992848;28;25072;-73
2023/11/19 12:24:54;;;;;;;46.78;11.00;;;;;;;;;;5008420;28;25080;-73
2023/11/19 12:27:22;;;;;;;56.92;9.52;;;;;;;;;;4989904;28;25062;-71
2023/11/19 12:29:48;;;;;;;47.53;10.25;;;;;;;;;;4995572;28;25092;-73
2023/11/19 12:32:14;;;;;;;50.30;9.57;;;;;;;;;;4988647;28;25067;-73
2023/11/19 12:34:40;;;;;;;46.70;11.40;;;;;;;;;;4989987;28;25065;-71
2023/11/19 12:37:08;;;;;;;49.55;9.65;;;;;;;;;;4990551;28;25094;-75
2023/11/19 12:39:34;;;;;;;57.22;10.43;;;;;;;;;;4989106;28;25071;-71
2023/11/19 12:42:00;;;;;;;40.97;9.02;;;;;;;;;;4986796;28;25106;-72
2023/11/19 12:44:26;;;;;;;49.47;10.73;;;;;;;;;;4991762;28;25100;-73
2023/11/19 12:47:02;;;;;;;44.67;9.55;;;;;;;;;;4987727;28;25163;-75
2023/11/19 12:49:28;;;;;;;45.70;9.98;;;;;;;;;;4990284;28;25053;-73
2023/11/19 12:51:54;;;;;;;46.22;9.38;;;;;;;;;;4992028;28;25093;-75
2023/11/19 12:54:20;;;;;;;44.15;9.40;;;;;;;;;;4987699;28;25153;-73
2023/11/19 12:56:54;;;;;;;49.17;10.30;;;;;;;;;;4988251;28;25082;-74
2023/11/19 12:59:20;;;;;;;46.05;9.00;;;;;;;;;;4988111;28;25102;-71
2023/11/19 13:01:56;;;;;;;30.42;7.57;;;;;;;;;;4990320;28;25076;-75
2023/11/19 13:04:22;;;;;;;39.50;8.95;;;;;;;;;;4985630;28;25071;-73
2023/11/19 13:06:48;;;;;;;41.92;9.05;;;;;;;;;;4988102;28;25118;-75
2023/11/19 13:09:27;;;;;;;44.67;8.90;;;;;;;;;;4991904;28;25051;-70
2023/11/19 13:11:53;;;;;;;37.20;8.57;;;;;;;;;;4988785;28;25127;-74
2023/11/19 13:14:19;;;;;;;41.65;8.80;;;;;;;;;;4987120;28;25058;-74
2023/11/19 13:16:46;;;;;;;47.53;9.52;;;;;;;;;;4990714;28;25065;-72
2023/11/19 13:19:12;;;;;;;42.65;8.25;;;;;;;;;;4991195;28;25071;-75
2023/11/19 13:21:39;;;;;;;39.17;8.93;;;;;;;;;;4989972;28;25061;-72
2023/11/19 13:24:06;;;;;;;52.38;9.50;;;;;;;;;;4994113;28;25125;-75
2023/11/19 13:26:32;;;;;;;44.22;10.02;;;;;;;;;;4991540;28;25084;-80
2023/11/19 13:28:58;;;;;;;46.58;10.05;;;;;;;;;;4993391;28;25081;-72
2023/11/19 13:31:24;;;;;;;41.85;9.35;;;;;;;;;;4997975;28;25070;-74
2023/11/19 13:33:50;;;;;;;36.83;8.05;;;;;;;;;;4991043;28;25062;-75
2023/11/19 13:36:16;;;;;;;39.25;8.15;;;;;;;;;;4985618;28;25070;-78
2023/11/19 13:38:44;;;;;;;42.15;8.70;;;;;;;;;;4981747;28;25067;-71
2023/11/19 13:41:11;;;;;;;34.75;7.93;;;;;;;;;;5001944;28;25059;-75
2023/11/19 13:43:37;;;;;;;47.47;9.85;;;;;;;;;;5011640;28;25051;-73
2023/11/19 13:46:03;;;;;;;49.33;8.93;;;;;;;;;;5011978;28;25082;-77
2023/11/19 13:48:29;;;;;;;41.33;7.82;;;;;;;;;;5011174;28;25078;-76
2023/11/19 13:50:56;;;;;;;32.60;9.15;;;;;;;;;;5010378;28;25059;-79
2023/11/19 13:53:23;;;;;;;38.80;8.35;;;;;;;;;;5007062;28;25053;-74
2023/11/19 13:55:49;;;;;;;53.03;9.52;;;;;;;;;;5004320;28;25063;-73
2023/11/19 13:58:15;;;;;;;42.00;9.00;;;;;;;;;;4989433;28;25054;-75
2023/11/19 14:00:43;;;;;;;40.97;7.45;;;;;;;;;;4989922;28;25058;-75
2023/11/19 14:03:10;;;;;;;52.63;10.13;;;;;;;;;;4985577;28;25094;-75
2023/11/19 14:05:36;;;;;;;51.85;9.02;;;;;;;;;;4990996;28;25152;-76
2023/11/19 14:08:03;;;;;;;43.47;8.95;;;;;;;;;;4992086;28;25160;-73
2023/11/19 14:10:29;;;;;;;38.72;8.85;;;;;;;;;;4989214;28;25062;-74
2023/11/19 14:12:55;;;;;;;43.92;11.13;;;;;;;;;;4992347;28;25061;-76
2023/11/19 14:15:21;;;;;;;43.53;8.93;;;;;;;;;;4986668;28;25167;-71
2023/11/19 14:17:47;;;;;;;43.28;9.05;;;;;;;;;;4990831;28;25126;-74